Time;durP1;ratioP1;P1;durP2;ratioP2;P2;SDS_P1;SDS_P2;PMS_P1;PMS_P2;Temp;Humidity;BMP_temperature;BMP_pressure;BME280_temperature;BME280_humidity;BME280_pressure;Samples;Min_cycle;Max_cycle;Signal;HPM_P1;HPM_P2
2021/07/03 12:52:18;;;;;;;6.40;2.23;;;;;;;27.49;100.00;99424.53;1675087;83;21362;-70
2021/07/03 12:54:45;;;;;;;3.70;2.00;;;;;;;27.46;100.00;99420.59;1673980;84;22079;-74
2021/07/03 12:57:11;;;;;;;5.07;2.40;;;;;;;27.67;100.00;99430.11;1676488;84;20939;-71
2021/07/03 12:59:41;;;;;;;5.27;2.10;;;;;;;27.61;100.00;99429.47;1680746;84;21806;-68
2021/07/03 13:02:10;;;;;;;4.33;2.37;;;;;;;27.71;100.00;99427.03;1642101;85;20967;-73
2021/07/03 13:04:39;;;;;;;5.13;2.57;;;;;;;27.79;100.00;99423.58;1615157;87;21008;-73
2021/07/03 13:07:06;;;;;;;4.40;2.67;;;;;;;27.80;100.00;99427.83;1643405;87;20992;-71
2021/07/03 13:09:32;;;;;;;5.43;2.10;;;;;;;27.95;100.00;99423.08;1646682;85;20932;-64
2021/07/03 13:11:59;;;;;;;3.63;2.10;;;;;;;28.05;100.00;99422.19;1642076;86;21101;-64
2021/07/03 13:14:26;;;;;;;3.90;2.10;;;;;;;27.98;100.00;99426.47;1614307;88;20976;-71
2021/07/03 13:16:52;;;;;;;3.80;2.10;;;;;;;27.95;100.00;99423.86;1653845;85;21000;-71
2021/07/03 13:19:19;;;;;;;3.03;2.00;;;;;;;27.82;100.00;99419.49;1644469;86;20975;-70
2021/07/03 13:21:45;;;;;;;4.63;2.30;;;;;;;27.49;100.00;99431.22;1616163;88;21015;-64
2021/07/03 13:24:11;;;;;;;5.37;2.10;;;;;;;27.48;100.00;99436.35;1642455;87;21553;-70
2021/07/03 13:26:38;;;;;;;3.47;2.20;;;;;;;27.46;100.00;99435.86;1642785;87;20992;-70
2021/07/03 13:29:05;;;;;;;6.50;1.97;;;;;;;27.43;100.00;99427.12;1642532;87;21530;-69
2021/07/03 13:31:31;;;;;;;8.47;2.47;;;;;;;27.41;100.00;99416.74;1643111;86;20988;-67
2021/07/03 13:33:57;;;;;;;4.67;1.97;;;;;;;27.30;100.00;99407.45;1642976;87;20953;-71
2021/07/03 13:36:24;;;;;;;4.50;2.13;;;;;;;27.29;100.00;99408.56;1644413;87;21135;-68
2021/07/03 13:38:50;;;;;;;5.00;2.40;;;;;;;27.29;100.00;99407.23;1644507;86;21027;-68
2021/07/03 13:41:17;;;;;;;4.73;2.70;;;;;;;27.19;100.00;99396.83;1643919;87;20968;-68
2021/07/03 13:43:43;;;;;;;6.60;2.53;;;;;;;27.05;100.00;99387.57;1644057;86;20936;-69
2021/07/03 13:46:12;;;;;;;4.60;2.50;;;;;;;27.08;100.00;99391.75;1643332;87;21428;-69
2021/07/03 13:48:39;;;;;;;5.00;2.90;;;;;;;26.80;100.00;99392.58;1642602;86;21162;-69
2021/07/03 13:51:06;;;;;;;6.60;3.00;;;;;;;26.63;100.00;99397.36;1647618;85;20949;-70
2021/07/03 13:53:32;;;;;;;5.03;3.10;;;;;;;26.61;100.00;99392.07;1644173;85;21540;-68
2021/07/03 13:55:59;;;;;;;6.33;2.93;;;;;;;26.40;100.00;99399.82;1618850;87;20937;-69
2021/07/03 13:58:26;;;;;;;5.00;3.37;;;;;;;26.38;100.00;99409.50;1643869;87;21007;-67
2021/07/03 14:00:53;;;;;;;5.47;3.23;;;;;;;26.09;100.00;99423.89;1643529;87;22288;-69
2021/07/03 14:03:20;;;;;;;6.87;3.57;;;;;;;26.01;100.00;99472.16;1648419;86;21478;-71
2021/07/03 14:05:48;;;;;;;6.30;2.70;;;;;;;26.12;100.00;99569.64;1643832;86;20956;-69
2021/07/03 14:08:16;;;;;;;3.50;1.97;;;;;;;25.88;100.00;99565.92;1642887;86;20912;-65
2021/07/03 14:10:44;;;;;;;3.73;1.90;;;;;;;25.66;100.00;99557.84;1646831;86;20952;-69
2021/07/03 14:13:10;;;;;;;4.20;2.03;;;;;;;25.67;100.00;99561.53;1616403;87;21784;-67
2021/07/03 14:15:39;;;;;;;3.73;2.20;;;;;;;25.58;100.00;99565.23;1643406;86;21017;-68
2021/07/03 14:18:06;;;;;;;4.87;1.97;;;;;;;25.54;100.00;99546.90;1642922;86;20956;-63
2021/07/03 14:20:33;;;;;;;4.03;2.07;;;;;;;25.39;100.00;99545.34;1640904;86;20992;-61
2021/07/03 14:23:00;;;;;;;4.37;2.00;;;;;;;25.34;100.00;99535.54;1644594;85;21002;-69
2021/07/03 14:25:27;;;;;;;4.00;2.20;;;;;;;25.25;100.00;99528.00;1616753;86;21038;-69
2021/07/03 14:27:54;;;;;;;4.27;2.27;;;;;;;25.31;100.00;99525.48;1643384;86;20977;-69
2021/07/03 14:30:20;;;;;;;4.23;1.97;;;;;;;25.31;100.00;99525.48;1643920;85;20900;-70
2021/07/03 14:32:47;;;;;;;5.67;2.43;;;;;;;25.25;100.00;99517.33;1615199;88;21343;-68
2021/07/03 14:35:13;;;;;;;4.80;2.33;;;;;;;25.26;100.00;99514.91;1640643;85;21516;-74
2021/07/03 14:37:40;;;;;;;3.73;2.00;;;;;;;25.06;100.00;99505.97;1643006;87;21784;-71
2021/07/03 14:40:08;;;;;;;3.93;2.30;;;;;;;24.99;100.00;99497.81;1643298;87;20943;-73
2021/07/03 14:42:34;;;;;;;6.47;2.60;;;;;;;24.77;100.00;99500.38;1643711;87;20955;-77
2021/07/03 14:45:01;;;;;;;4.47;2.07;;;;;;;24.47;100.00;99503.86;1640807;86;22330;-75
2021/07/03 14:47:27;;;;;;;4.17;2.10;;;;;;;24.26;100.00;99505.25;1645468;86;22053;-73
2021/07/03 14:49:54;;;;;;;7.07;2.27;;;;;;;24.19;100.00;99508.28;1642607;87;21135;-77
2021/07/03 14:52:20;;;;;;;6.47;2.40;;;;;;;24.00;100.00;99512.85;1659303;85;20979;-71
2021/07/03 14:54:47;;;;;;;5.57;2.20;;;;;;;23.85;100.00;99515.20;1669552;85;20943;-67
2021/07/03 14:57:13;;;;;;;4.07;2.03;;;;;;;23.87;100.00;99530.36;1670661;85;20987;-69
2021/07/03 14:59:40;;;;;;;3.27;1.97;;;;;;;23.85;100.00;99521.86;1670301;85;21529;-73
2021/07/03 15:02:06;;;;;;;3.73;2.00;;;;;;;23.83;100.00;99512.56;1671261;85;21793;-70
2021/07/03 15:04:33;;;;;;;4.80;2.40;;;;;;;23.61;100.00;99519.80;1670904;85;20975;-69
2021/07/03 15:07:00;;;;;;;4.03;2.03;;;;;;;23.61;100.00;99519.80;1669445;85;21015;-73
2021/07/03 15:09:26;;;;;;;2.93;1.90;;;;;;;23.51;100.00;99500.21;1671222;85;20924;-74
2021/07/03 15:11:52;;;;;;;4.37;1.80;;;;;;;23.37;100.00;99498.55;1671649;85;20980;-72
2021/07/03 15:14:19;;;;;;;4.40;2.00;;;;;;;23.28;100.00;99499.73;1668153;85;21068;-72
2021/07/03 15:16:45;;;;;;;3.80;2.20;;;;;;;23.16;100.00;99492.70;1667347;85;21513;-67
2021/07/03 15:19:12;;;;;;;3.60;2.23;;;;;;;23.19;100.00;99495.59;1670801;85;21448;-73
2021/07/03 15:21:39;;;;;;;4.83;2.30;;;;;;;23.14;100.00;99496.17;1670738;85;21481;-72
2021/07/03 15:24:07;;;;;;;4.70;2.17;;;;;;;23.18;100.00;99490.54;1666732;85;20948;-71
2021/07/03 15:26:35;;;;;;;4.77;2.10;;;;;;;23.29;100.00;99495.98;1661761;85;21148;-73
2021/07/03 15:29:01;;;;;;;4.67;2.23;;;;;;;23.28;100.00;99494.41;1662089;85;20967;-66
2021/07/03 15:31:27;;;;;;;3.40;2.00;;;;;;;23.28;100.00;99487.77;1663555;85;21007;-70
2021/07/03 15:33:54;;;;;;;4.40;2.43;;;;;;;23.22;100.00;99492.88;1663606;85;20991;-69
2021/07/03 15:36:24;;;;;;;5.10;2.67;;;;;;;23.26;100.00;99493.89;1666345;85;21019;-70
2021/07/03 15:38:51;;;;;;;4.43;2.30;;;;;;;23.30;100.00;99495.72;1642847;87;21610;-66
2021/07/03 15:41:17;;;;;;;5.27;2.27;;;;;;;23.37;100.00;99495.34;1666746;84;20986;-68
2021/07/03 15:43:44;;;;;;;4.63;2.20;;;;;;;23.54;100.00;99499.64;1653369;84;21037;-70
2021/07/03 15:46:10;;;;;;;4.13;2.40;;;;;;;21.87;100.00;99518.81;1667779;85;21007;-70
2021/07/03 15:48:37;;;;;;;6.07;2.50;;;;;;;21.76;100.00;99526.58;1670638;85;20999;-70
2021/07/03 15:51:03;;;;;;;4.20;2.40;;;;;;;21.82;100.00;99524.95;1670319;85;21104;-67
2021/07/03 15:53:30;;;;;;;4.50;2.90;;;;;;;21.67;100.00;99522.89;1663137;85;21893;-66
2021/07/03 15:55:56;;;;;;;6.30;4.23;;;;;;;21.85;100.00;99523.59;1656707;85;20932;-71
2021/07/03 15:58:22;;;;;;;6.87;3.90;;;;;;;21.52;100.00;99519.82;1658120;85;21537;-71
2021/07/03 16:00:49;;;;;;;6.17;3.87;;;;;;;21.36;100.00;99507.93;1652461;85;21036;-70
2021/07/03 16:03:15;;;;;;;8.03;4.13;;;;;;;21.49;100.00;99493.30;1685844;84;21132;-67
2021/07/03 16:05:42;;;;;;;6.50;4.50;;;;;;;21.06;100.00;99485.00;1689043;83;20928;-72
2021/07/03 16:08:08;;;;;;;4.77;3.50;;;;;;;21.34;100.00;99493.39;1693485;83;20988;-70
2021/07/03 16:10:35;;;;;;;4.40;3.10;;;;;;;21.26;100.00;99486.77;1686402;84;20948;-70
2021/07/03 16:13:01;;;;;;;4.57;2.97;;;;;;;21.24;100.00;99502.12;1693771;83;20979;-71
2021/07/03 16:15:28;;;;;;;10.63;4.47;;;;;;;21.38;100.00;99501.05;1691911;83;21803;-70
2021/07/03 16:17:55;;;;;;;5.80;3.83;;;;;;;21.27;100.00;99512.73;1688862;83;20967;-70
2021/07/03 16:20:23;;;;;;;7.00;4.40;;;;;;;21.41;100.00;99505.02;1691927;83;20966;-70
2021/07/03 16:22:51;;;;;;;5.57;4.33;;;;;;;21.17;100.00;99493.67;1694078;83;21463;-71
2021/07/03 16:25:18;;;;;;;5.67;3.90;;;;;;;20.97;100.00;99497.20;1693945;83;21517;-69
2021/07/03 16:27:44;;;;;;;6.57;4.20;;;;;;;21.06;100.00;99484.17;1693016;83;21155;-68
2021/07/03 16:30:12;;;;;;;8.43;3.73;;;;;;;21.24;100.00;99467.67;1683332;84;21030;-71
2021/07/03 16:32:39;;;;;;;7.80;4.70;;;;;;;21.27;100.00;99470.32;1683453;83;20952;-71
2021/07/03 16:35:06;;;;;;;6.83;4.00;;;;;;;21.40;100.00;99464.97;1682551;83;21482;-68
2021/07/03 16:37:33;;;;;;;6.97;4.67;;;;;;;21.55;100.00;99456.39;1680022;83;20947;-70
2021/07/03 16:39:59;;;;;;;7.70;4.33;;;;;;;21.64;100.00;99447.34;1675979;84;21825;-68
2021/07/03 16:42:26;;;;;;;8.30;4.00;;;;;;;21.82;100.00;99443.21;1686125;83;20967;-69
2021/07/03 16:44:53;;;;;;;7.17;4.27;;;;;;;21.93;100.00;99432.78;1635932;86;21015;-69
2021/07/03 16:47:19;;;;;;;5.53;3.90;;;;;;;21.78;100.00;99423.11;1661844;85;20892;-69
2021/07/03 16:49:46;;;;;;;5.80;4.10;;;;;;;21.74;100.00;99420.72;1658919;84;21011;-69
2021/07/03 16:52:12;;;;;;;6.97;3.83;;;;;;;21.82;100.00;99412.70;1655924;84;21853;-67
2021/07/03 16:54:39;;;;;;;6.10;3.47;;;;;;;21.99;100.00;99402.48;1655394;86;20909;-69
2021/07/03 16:57:06;;;;;;;5.90;4.00;;;;;;;21.99;100.00;99391.09;1661533;84;20945;-68
2021/07/03 16:59:33;;;;;;;7.17;4.53;;;;;;;22.01;100.00;99395.56;1658723;86;20984;-71
2021/07/03 17:02:00;;;;;;;4.43;3.10;;;;;;;21.87;100.00;99387.48;1661464;86;21558;-67
2021/07/03 17:04:26;;;;;;;6.63;3.23;;;;;;;21.90;100.00;99380.30;1663246;86;21102;-70
2021/07/03 17:06:52;;;;;;;6.73;4.00;;;;;;;21.85;100.00;99381.64;1636289;86;20985;-71
2021/07/03 17:09:19;;;;;;;7.27;4.50;;;;;;;22.03;100.00;99388.91;1659167;85;21593;-69
2021/07/03 17:11:46;;;;;;;6.17;4.07;;;;;;;22.02;100.00;99371.95;1663259;86;21497;-72
2021/07/03 17:14:12;;;;;;;5.60;4.17;;;;;;;21.93;100.00;99371.75;1664026;86;20995;-67
2021/07/03 17:16:38;;;;;;;5.90;4.00;;;;;;;22.06;100.00;99375.09;1659002;85;21167;-73
2021/07/03 17:19:05;;;;;;;7.00;4.20;;;;;;;21.85;100.00;99365.19;1646485;85;20926;-71
2021/07/03 17:21:32;;;;;;;8.57;5.37;;;;;;;21.73;100.00;99356.02;1633229;86;20910;-73
2021/07/03 17:23:58;;;;;;;7.73;4.40;;;;;;;21.71;100.00;99358.18;1637572;86;20932;-73
2021/07/03 17:26:25;;;;;;;4.50;2.90;;;;;;;21.66;100.00;99367.48;1663593;86;20928;-69
2021/07/03 17:28:51;;;;;;;4.67;3.57;;;;;;;21.52;100.00;99366.80;1636277;86;21231;-73
2021/07/03 17:31:18;;;;;;;7.10;3.70;;;;;;;21.59;100.00;99365.14;1664204;85;20963;-71
2021/07/03 17:33:44;;;;;;;5.17;3.50;;;;;;;21.75;100.00;99356.55;1662498;86;21011;-67
2021/07/03 17:36:11;;;;;;;3.87;2.63;;;;;;;21.82;100.00;99354.34;1665462;86;21568;-71
2021/07/03 17:38:37;;;;;;;4.77;2.60;;;;;;;21.65;100.00;99350.78;1635349;86;21398;-67
2021/07/03 17:41:04;;;;;;;8.60;4.43;;;;;;;21.68;100.00;99347.58;1661970;85;21083;-71
2021/07/03 17:43:30;;;;;;;6.63;4.20;;;;;;;21.66;100.00;99358.20;1660918;85;21003;-70
2021/07/03 17:45:58;;;;;;;5.63;4.20;;;;;;;21.61;100.00;99376.28;1655820;86;20980;-71
2021/07/03 17:48:24;;;;;;;6.47;4.10;;;;;;;21.59;100.00;99380.55;1661194;86;21652;-73
2021/07/03 17:50:51;;;;;;;5.57;3.67;;;;;;;21.51;100.00;99386.95;1626775;86;21521;-71
2021/07/03 17:53:17;;;;;;;5.67;3.00;;;;;;;21.43;100.00;99370.31;1659389;85;21113;-72
2021/07/03 17:55:44;;;;;;;5.67;3.57;;;;;;;21.38;100.00;99374.58;1657431;85;20943;-66
2021/07/03 17:58:10;;;;;;;7.47;4.63;;;;;;;21.42;100.00;99375.36;1663592;86;20940;-76
2021/07/03 18:00:37;;;;;;;6.77;5.43;;;;;;;21.44;100.00;99367.41;1636014;86;20932;-72
2021/07/03 18:03:04;;;;;;;7.23;4.93;;;;;;;21.60;100.00;99352.95;1662922;85;21513;-71
2021/07/03 18:05:30;;;;;;;10.47;5.50;;;;;;;21.52;100.00;99348.78;1663453;85;21957;-73
2021/07/03 18:07:57;;;;;;;7.67;5.13;;;;;;;21.59;100.00;99356.68;1664005;86;20951;-71
2021/07/03 18:10:24;;;;;;;6.77;4.57;;;;;;;21.64;100.00;99352.41;1633993;87;21047;-71
2021/07/03 18:12:50;;;;;;;9.30;5.57;;;;;;;21.50;100.00;99358.33;1657546;85;21040;-71
2021/07/03 18:15:17;;;;;;;10.13;5.63;;;;;;;21.43;100.00;99368.45;1645096;87;21023;-70
2021/07/03 18:17:43;;;;;;;9.17;5.70;;;;;;;21.30;100.00;99370.38;1635835;86;22404;-68
2021/07/03 18:20:13;;;;;;;9.80;5.43;;;;;;;21.34;100.00;99376.73;1644074;87;21487;-70
2021/07/03 18:22:39;;;;;;;8.43;5.57;;;;;;;21.49;100.00;99387.24;1638792;87;20925;-69
2021/07/03 18:25:08;;;;;;;9.70;5.53;;;;;;;21.41;100.00;99380.42;1645165;87;20999;-71
2021/07/03 18:27:36;;;;;;;8.07;6.23;;;;;;;21.23;100.00;99379.95;1639681;87;21462;-67
2021/07/03 18:30:08;;;;;;;9.70;7.23;;;;;;;21.08;100.00;99387.45;1643146;87;21169;-69
2021/07/03 18:32:35;;;;;;;10.30;6.50;;;;;;;21.10;100.00;99401.23;1660139;85;21495;-70
2021/07/03 18:35:03;;;;;;;11.13;7.70;;;;;;;21.05;100.00;99400.45;1660307;85;21518;-69
2021/07/03 18:37:31;;;;;;;11.73;7.27;;;;;;;21.20;100.00;99406.21;1645928;86;20923;-67
2021/07/03 18:39:57;;;;;;;11.17;6.63;;;;;;;21.27;100.00;99412.80;1646602;87;21039;-70
2021/07/03 18:42:24;;;;;;;8.20;6.90;;;;;;;21.17;100.00;99416.81;1660307;85;21803;-71
2021/07/03 18:44:50;;;;;;;7.97;5.67;;;;;;;20.43;100.00;99422.37;1659846;86;21451;-71
2021/07/03 18:47:17;;;;;;;7.27;5.40;;;;;;;19.98;100.00;99431.95;1659728;86;20952;-69
2021/07/03 18:49:44;;;;;;;6.97;5.50;;;;;;;19.99;100.00;99435.38;1659244;86;20940;-70
2021/07/03 18:52:11;;;;;;;8.40;5.47;;;;;;;20.05;100.00;99444.37;1659578;86;21020;-71
2021/07/03 18:54:40;;;;;;;9.60;5.60;;;;;;;20.09;100.00;99436.70;1659308;85;21135;-71
2021/07/03 18:57:09;;;;;;;7.83;4.13;;;;;;;20.11;100.00;99437.22;1659817;86;20936;-69
2021/07/03 18:59:35;;;;;;;8.87;4.13;;;;;;;20.33;100.00;99446.20;1646007;87;20959;-67
2021/07/03 19:02:02;;;;;;;6.57;3.83;;;;;;;20.17;100.00;99445.43;1646384;86;20982;-71
2021/07/03 19:04:29;;;;;;;9.30;4.10;;;;;;;20.28;100.00;99460.24;1646653;86;21011;-71
2021/07/03 19:06:55;;;;;;;8.97;3.80;;;;;;;20.23;100.00;99470.02;1659931;86;21783;-71
2021/07/03 19:09:22;;;;;;;7.27;3.50;;;;;;;20.15;100.00;99497.30;1655466;86;21522;-67
2021/07/03 19:11:50;;;;;;;6.27;3.50;;;;;;;20.10;100.00;99492.53;1659374;86;20995;-67
2021/07/03 19:14:16;;;;;;;7.80;4.10;;;;;;;20.22;100.00;99513.43;1659709;85;20940;-71
2021/07/03 19:16:44;;;;;;;6.30;3.23;;;;;;;20.22;100.00;99527.45;1646746;86;20935;-71
2021/07/03 19:19:11;;;;;;;9.43;3.77;;;;;;;20.25;100.00;99495.17;1659756;85;21142;-70
2021/07/03 19:21:38;;;;;;;5.37;3.10;;;;;;;20.21;100.00;99501.27;1659297;86;20987;-68
2021/07/03 19:24:05;;;;;;;9.63;3.80;;;;;;;20.13;100.00;99503.38;1659106;86;20897;-67
2021/07/03 19:26:32;;;;;;;7.63;4.07;;;;;;;20.29;100.00;99507.34;1659166;86;21031;-69
2021/07/03 19:28:59;;;;;;;6.97;3.73;;;;;;;20.37;100.00;99508.13;1641758;87;20975;-70
2021/07/03 19:31:25;;;;;;;8.33;3.87;;;;;;;20.38;100.00;99516.33;1660148;85;21765;-69
2021/07/03 19:33:52;;;;;;;7.80;4.07;;;;;;;20.38;100.00;99517.66;1658818;86;20960;-65
2021/07/03 19:36:19;;;;;;;8.70;4.00;;;;;;;20.67;100.00;99507.88;1661961;85;20960;-68
2021/07/03 19:38:46;;;;;;;5.57;3.70;;;;;;;20.68;100.00;99493.03;1659940;86;20964;-70
2021/07/03 19:41:12;;;;;;;6.10;3.77;;;;;;;20.73;100.00;99479.80;1659898;85;20976;-70
2021/07/03 19:43:40;;;;;;;6.07;3.37;;;;;;;20.95;100.00;99473.35;1659859;86;21065;-71
2021/07/03 19:46:07;;;;;;;6.57;3.47;;;;;;;21.17;100.00;99466.38;1658609;86;20933;-69
2021/07/03 19:48:33;;;;;;;6.07;4.13;;;;;;;21.20;100.00;99459.22;1660011;86;20987;-70
2021/07/03 19:51:00;;;;;;;6.43;3.90;;;;;;;21.29;100.00;99465.02;1660011;86;20928;-70
2021/07/03 19:53:26;;;;;;;7.93;3.77;;;;;;;21.30;100.00;99466.59;1661997;85;21505;-70
2021/07/03 19:55:53;;;;;;;5.57;3.50;;;;;;;21.36;100.00;99465.52;1665696;85;21135;-64
2021/07/03 19:58:20;;;;;;;6.10;3.70;;;;;;;21.35;100.00;99465.80;1665173;84;20877;-70
2021/07/03 20:00:47;;;;;;;8.27;3.57;;;;;;;21.24;100.00;99461.05;1672623;84;20947;-70
2021/07/03 20:03:14;;;;;;;7.33;3.27;;;;;;;21.42;100.00;99469.48;1636763;86;20944;-70
2021/07/03 20:05:41;;;;;;;5.37;2.87;;;;;;;21.42;100.00;99456.23;1671360;85;20951;-71
2021/07/03 20:08:09;;;;;;;5.33;3.53;;;;;;;21.57;100.00;99446.31;1671609;85;21147;-65
2021/07/03 20:10:37;;;;;;;6.37;3.70;;;;;;;21.48;100.00;99443.18;1672263;85;20959;-69
2021/07/03 20:13:03;;;;;;;3.83;2.40;;;;;;;21.51;100.00;99436.80;1673273;85;20928;-69
2021/07/03 20:15:30;;;;;;;4.37;3.00;;;;;;;21.56;100.00;99435.45;1672288;85;21534;-70
2021/07/03 20:17:57;;;;;;;6.17;3.07;;;;;;;21.71;100.00;99427.14;1672366;85;20964;-69
2021/07/03 20:20:24;;;;;;;5.97;3.73;;;;;;;21.72;100.00;99429.51;1671417;85;20980;-68
2021/07/03 20:22:50;;;;;;;6.63;3.20;;;;;;;21.75;100.00;99426.84;1670074;85;20955;-71
2021/07/03 20:25:17;;;;;;;6.23;3.20;;;;;;;21.98;100.00;99431.44;1670615;85;21477;-72
2021/07/03 20:27:44;;;;;;;5.23;3.43;;;;;;;21.53;100.00;99417.44;1671362;85;20935;-71
2021/07/03 20:30:14;;;;;;;7.93;3.40;;;;;;;21.60;100.00;99407.31;1670455;85;20959;-65
2021/07/03 20:32:40;;;;;;;5.97;3.53;;;;;;;21.64;100.00;99402.25;1670275;85;21224;-71
2021/07/03 20:35:08;;;;;;;4.97;3.03;;;;;;;21.74;100.00;99406.67;1671494;85;20973;-71
2021/07/03 20:37:34;;;;;;;4.10;2.80;;;;;;;21.74;100.00;99401.37;1670034;85;20936;-72
2021/07/03 20:40:05;;;;;;;7.93;3.67;;;;;;;21.82;100.00;99414.03;1672608;85;20932;-67
2021/07/03 20:42:33;;;;;;;6.00;3.58;;;;;;;21.81;100.00;99409.27;1668141;85;20889;-72
2021/07/03 20:45:00;;;;;;;5.70;3.10;;;;;;;22.00;100.00;99400.08;1672493;85;21386;-71
2021/07/03 20:47:26;;;;;;;5.20;3.27;;;;;;;21.90;100.00;99414.00;1671158;85;20920;-71
2021/07/03 20:49:53;;;;;;;5.63;3.23;;;;;;;21.77;100.00;99410.10;1672016;85;20998;-72
2021/07/03 20:52:19;;;;;;;5.47;3.40;;;;;;;21.83;100.00;99405.02;1672867;85;20967;-64
2021/07/03 20:54:46;;;;;;;7.17;3.00;;;;;;;21.93;100.00;99403.59;1671089;85;20971;-70
2021/07/03 20:57:13;;;;;;;7.30;3.10;;;;;;;21.78;100.00;99399.73;1671891;85;21146;-74
2021/07/03 20:59:40;;;;;;;5.47;3.30;;;;;;;21.72;100.00;99386.28;1671326;84;20972;-71
2021/07/03 21:02:06;;;;;;;5.97;3.47;;;;;;;21.75;100.00;99392.36;1728533;76;20887;-68
2021/07/03 21:04:33;;;;;;;5.83;3.80;;;;;;;21.83;100.00;99383.80;1731895;82;20968;-73
2021/07/03 21:07:02;;;;;;;5.30;2.90;;;;;;;21.73;100.00;99389.97;1739036;82;20885;-72
2021/07/03 21:09:29;;;;;;;5.80;3.63;;;;;;;21.97;100.00;99378.62;1729754;82;21171;-72
2021/07/03 21:11:55;;;;;;;6.87;3.60;;;;;;;21.85;100.00;99389.61;1732214;82;20866;-70
2021/07/03 21:14:21;;;;;;;6.30;3.00;;;;;;;21.84;100.00;99396.78;1730054;82;20949;-65
2021/07/03 21:16:48;;;;;;;9.40;3.17;;;;;;;21.92;100.00;99384.77;1729180;82;20965;-72
2021/07/03 21:19:16;;;;;;;5.10;3.33;;;;;;;21.75;100.00;99389.71;1724358;82;20992;-72
2021/07/03 21:21:44;;;;;;;6.10;3.63;;;;;;;21.81;100.00;99387.25;1732312;82;20933;-71
2021/07/03 21:24:11;;;;;;;6.40;3.50;;;;;;;22.00;100.00;99379.39;1727712;82;20894;-68
2021/07/03 21:26:39;;;;;;;6.43;3.10;;;;;;;22.11;100.00;99366.28;1735901;82;20925;-73
2021/07/03 21:29:05;;;;;;;4.13;3.07;;;;;;;22.18;100.00;99361.47;1725883;82;20937;-72
2021/07/03 21:31:32;;;;;;;7.87;3.30;;;;;;;22.16;100.00;99358.83;1730183;82;20972;-73
2021/07/03 21:33:59;;;;;;;5.47;2.93;;;;;;;22.30;100.00;99351.78;1728246;82;21046;-75
2021/07/03 21:36:25;;;;;;;4.43;2.93;;;;;;;22.18;100.00;99343.42;1728512;82;21376;-64
2021/07/03 21:38:51;;;;;;;5.97;3.53;;;;;;;22.25;100.00;99346.54;1731183;82;21013;-65
2021/07/03 21:41:18;;;;;;;5.60;3.20;;;;;;;22.32;100.00;99345.13;1728998;82;20929;-73
2021/07/03 21:43:44;;;;;;;7.77;3.37;;;;;;;22.27;100.00;99347.81;1735738;82;20956;-73
2021/07/03 21:46:11;;;;;;;8.07;3.90;;;;;;;22.34;100.00;99350.14;1729114;82;21108;-71
2021/07/03 21:48:38;;;;;;;6.07;4.00;;;;;;;22.43;100.00;99341.83;1738740;82;20968;-75
2021/07/03 21:51:07;;;;;;;8.10;3.83;;;;;;;22.37;100.00;99334.98;1728750;82;20964;-74
2021/07/03 21:53:34;;;;;;;8.57;3.80;;;;;;;22.29;100.00;99332.95;1728453;82;20913;-73
2021/07/03 21:56:00;;;;;;;7.20;3.73;;;;;;;22.39;100.00;99327.53;1731055;82;21041;-75
2021/07/03 21:58:27;;;;;;;5.20;3.93;;;;;;;22.46;100.00;99315.22;1729479;82;21112;-64
2021/07/03 22:00:53;;;;;;;6.80;4.07;;;;;;;22.58;100.00;99312.42;1734028;82;20993;-74
2021/07/03 22:03:20;;;;;;;7.40;3.93;;;;;;;22.75;100.00;99307.16;1735967;81;21442;-74
2021/07/03 22:05:49;;;;;;;8.97;4.83;;;;;;;22.82;100.00;99300.41;1750483;81;20956;-75
2021/07/03 22:08:18;;;;;;;6.87;4.40;;;;;;;22.83;100.00;99300.65;1744255;81;21003;-76
2021/07/03 22:10:47;;;;;;;8.83;4.40;;;;;;;22.80;100.00;99293.25;1740496;81;22529;-76
2021/07/03 22:13:14;;;;;;;6.87;4.40;;;;;;;22.86;100.00;99296.64;1744561;81;20980;-64
2021/07/03 22:15:47;;;;;;;6.17;3.50;;;;;;;22.77;100.00;99293.06;1742010;81;20987;-75
2021/07/03 22:18:13;;;;;;;6.73;3.83;;;;;;;22.69;100.00;99295.00;1732635;81;20949;-75
2021/07/03 22:20:40;;;;;;;5.67;4.47;;;;;;;22.70;100.00;99297.94;1741152;81;20956;-65
2021/07/03 22:23:09;;;;;;;6.53;4.33;;;;;;;22.67;100.00;99298.50;1745268;81;21108;-75
2021/07/03 22:25:35;;;;;;;8.80;4.20;;;;;;;22.90;100.00;99288.34;1740978;81;20865;-74
2021/07/03 22:28:04;;;;;;;8.63;4.00;;;;;;;22.87;100.00;99284.14;1747409;81;22119;-74
2021/07/03 22:30:30;;;;;;;7.87;4.27;;;;;;;22.68;100.00;99276.16;1743230;81;20955;-74
2021/07/03 22:32:57;;;;;;;7.37;4.07;;;;;;;22.82;100.00;99273.05;1748344;81;20889;-65
2021/07/03 22:35:23;;;;;;;5.57;3.63;;;;;;;22.76;100.00;99277.63;1722309;81;21180;-73
2021/07/03 22:37:50;;;;;;;7.87;3.50;;;;;;;22.72;100.00;99281.16;1742906;81;20936;-74
2021/07/03 22:40:17;;;;;;;6.63;3.83;;;;;;;22.74;100.00;99272.38;1726195;82;20889;-73
2021/07/03 22:42:44;;;;;;;9.20;4.13;;;;;;;22.66;100.00;99270.36;1743451;81;20913;-71
2021/07/03 22:45:11;;;;;;;5.60;3.60;;;;;;;22.52;100.00;99259.65;1729091;81;20935;-74
2021/07/03 22:47:41;;;;;;;6.37;3.80;;;;;;;22.55;100.00;99259.87;1743649;81;21109;-67
2021/07/03 22:50:10;;;;;;;7.17;3.87;;;;;;;22.55;100.00;99254.55;1730685;82;20913;-77
2021/07/03 22:52:37;;;;;;;5.00;3.60;;;;;;;22.58;100.00;99254.53;1737633;81;21443;-75
2021/07/03 22:55:09;;;;;;;6.07;3.63;;;;;;;22.72;100.00;99257.24;1727874;81;20896;-69
2021/07/03 22:57:36;;;;;;;5.17;3.10;;;;;;;22.27;100.00;99262.08;1721967;81;21476;-75
2021/07/03 23:00:13;;;;;;;7.83;3.27;;;;;;;22.09;100.00;99271.03;1729704;81;21278;-75
2021/07/03 23:02:41;;;;;;;8.00;3.97;;;;;;;22.18;100.00;99276.52;1723517;82;21501;-63
2021/07/03 23:05:08;;;;;;;7.37;3.60;;;;;;;22.19;100.00;99281.30;1723165;83;20943;-74
2021/07/03 23:07:35;;;;;;;6.20;3.57;;;;;;;22.32;100.00;99282.73;1718969;81;20889;-76
2021/07/03 23:10:18;;;;;;;7.67;3.87;;;;;;;22.26;100.00;99284.40;1711823;81;21102;-77
2021/07/03 23:12:45;;;;;;;8.27;3.30;;;;;;;22.36;100.00;99286.16;1719520;81;21103;-77
2021/07/03 23:15:12;;;;;;;7.03;4.33;;;;;;;22.26;100.00;99281.20;1714561;81;20987;-65
2021/07/03 23:17:39;;;;;;;5.00;3.63;;;;;;;22.28;100.00;99275.63;1723191;81;20883;-76
2021/07/03 23:20:13;;;;;;;4.97;3.53;;;;;;;22.11;100.00;99276.83;1709275;81;20979;-76
2021/07/03 23:22:39;;;;;;;5.00;3.10;;;;;;;22.31;100.00;99268.40;1718442;81;20933;-74
2021/07/03 23:25:13;;;;;;;7.80;3.97;;;;;;;22.21;100.00;99271.98;1713426;81;21469;-63
2021/07/03 23:27:40;;;;;;;4.60;3.53;;;;;;;22.35;100.00;99272.09;1720943;81;20878;-76
2021/07/03 23:30:13;;;;;;;7.20;4.20;;;;;;;22.01;100.00;99273.49;1717250;81;20921;-76
2021/07/03 23:32:39;;;;;;;5.90;3.77;;;;;;;22.08;100.00;99274.73;1721811;83;20901;-64
2021/07/03 23:35:07;;;;;;;7.77;3.87;;;;;;;22.15;100.00;99266.47;1717604;81;20957;-77
2021/07/03 23:37:33;;;;;;;6.30;3.70;;;;;;;22.34;100.00;99268.63;1713368;83;21167;-68
2021/07/03 23:40:02;;;;;;;6.30;4.00;;;;;;;22.36;100.00;99264.38;1720033;83;20894;-73
2021/07/03 23:42:32;;;;;;;5.80;3.83;;;;;;;21.94;100.00;99253.95;1714724;83;20962;-76
2021/07/03 23:44:58;;;;;;;5.97;4.30;;;;;;;22.01;100.00;99254.92;1721260;81;20898;-78
2021/07/03 23:47:25;;;;;;;7.30;3.50;;;;;;;22.04;100.00;99254.36;1717479;83;20946;-75
2021/07/03 23:49:52;;;;;;;5.40;3.70;;;;;;;22.01;100.00;99253.59;1722150;81;21105;-73
2021/07/03 23:52:19;;;;;;;6.10;4.20;;;;;;;21.84;100.00;99256.70;1715353;83;20929;-74
2021/07/03 23:54:47;;;;;;;7.40;3.73;;;;;;;21.92;100.00;99259.28;1716445;81;20925;-78
2021/07/03 23:57:13;;;;;;;6.07;3.70;;;;;;;;;;1718805;83;20866;-76
2021/07/03 23:59:40;;;;;;;6.90;3.50;;;;;;;21.92;100.00;99264.05;1716759;83;20902;-66
